createdAt,value
2018-11-12T00:01:32.759Z,23.80
2018-11-12T00:04:05.183Z,23.90
2018-11-12T00:06:37.371Z,23.80
2018-11-12T00:09:11.354Z,23.80
2018-11-12T00:11:43.544Z,23.80
2018-11-12T00:14:16.165Z,23.90
2018-11-12T00:16:48.308Z,23.60
2018-11-12T00:19:20.673Z,23.70
2018-11-12T00:21:53.117Z,24.00
2018-11-12T00:24:25.386Z,23.70
2018-11-12T00:26:57.580Z,23.60
2018-11-12T00:29:29.825Z,23.60
2018-11-12T00:32:01.949Z,23.80
2018-11-12T00:34:34.453Z,23.80
2018-11-12T00:37:06.620Z,23.90
2018-11-12T00:39:38.896Z,23.90
2018-11-12T00:42:11.027Z,24.10
2018-11-12T00:44:43.266Z,24.10
2018-11-12T00:47:15.627Z,24.20
2018-11-12T00:49:47.914Z,24.30
2018-11-12T00:52:20.038Z,24.20
2018-11-12T00:54:52.389Z,23.90
2018-11-12T00:57:24.613Z,23.70
2018-11-12T00:59:56.838Z,23.50
2018-11-12T01:02:29.050Z,23.40
2018-11-12T01:05:01.312Z,22.90
2018-11-12T01:07:33.485Z,23.00
2018-11-12T01:10:06.074Z,23.00
2018-11-12T01:12:38.928Z,23.10
2018-11-12T01:15:13.991Z,23.10
2018-11-12T01:17:46.342Z,23.30
2018-11-12T01:20:19.646Z,23.50
2018-11-12T01:22:52.041Z,23.60
2018-11-12T01:25:24.317Z,23.60
2018-11-12T01:27:56.464Z,23.70
2018-11-12T01:30:28.672Z,23.70
2018-11-12T01:33:00.796Z,23.60
2018-11-12T01:35:33.313Z,23.60
2018-11-12T01:38:05.546Z,23.70
2018-11-12T01:40:37.753Z,23.60
2018-11-12T01:43:09.927Z,23.70
2018-11-12T01:45:42.164Z,23.70
2018-11-12T01:48:14.334Z,23.70
2018-11-12T01:50:46.577Z,23.60
2018-11-12T01:53:18.731Z,23.50
2018-11-12T01:55:51.171Z,23.40
2018-11-12T01:58:23.394Z,23.40
2018-11-12T02:00:55.605Z,23.50
2018-11-12T02:03:27.802Z,23.50
2018-11-12T02:06:00.092Z,23.50
2018-11-12T02:08:32.242Z,23.50
2018-11-12T02:11:04.492Z,23.30
2018-11-12T02:13:36.646Z,23.20
2018-11-12T02:16:11.614Z,23.20
2018-11-12T02:18:43.817Z,23.10
2018-11-12T02:21:16.084Z,22.90
2018-11-12T02:23:48.280Z,22.90
2018-11-12T02:26:20.482Z,22.60
2018-11-12T02:28:52.638Z,22.60
2018-11-12T02:31:24.885Z,22.70
2018-11-12T02:33:57.045Z,22.60
2018-11-12T02:36:29.540Z,22.70
2018-11-12T02:39:01.706Z,22.60
2018-11-12T02:41:33.901Z,22.70
2018-11-12T02:44:06.107Z,22.60
2018-11-12T02:46:38.973Z,22.50
2018-11-12T02:49:11.136Z,22.70
2018-11-12T02:51:43.781Z,22.70
2018-11-12T02:54:15.973Z,22.70
2018-11-12T02:56:48.440Z,22.60
2018-11-12T02:59:20.651Z,22.50
2018-11-12T03:01:52.914Z,22.50
2018-11-12T03:04:25.047Z,22.60
2018-11-12T03:06:57.332Z,22.70
2018-11-12T03:09:29.622Z,22.70
2018-11-12T03:12:01.858Z,22.80
2018-11-12T03:14:34.009Z,22.70
2018-11-12T03:17:07.411Z,22.70
2018-11-12T03:19:39.575Z,22.70
2018-11-12T03:22:11.825Z,22.70
2018-11-12T03:24:44.009Z,22.50
2018-11-12T03:27:16.217Z,22.50
2018-11-12T03:29:48.330Z,22.60
2018-11-12T03:32:20.589Z,22.60
2018-11-12T03:34:52.820Z,22.30
2018-11-12T03:37:25.271Z,22.00
2018-11-12T03:39:57.380Z,21.90
2018-11-12T03:42:29.961Z,22.10
2018-11-12T03:45:02.086Z,22.10
2018-11-12T03:47:34.323Z,22.00
2018-11-12T03:50:06.654Z,22.10
2018-11-12T03:52:39.034Z,22.10
2018-11-12T03:55:12.706Z,22.00
2018-11-12T03:57:45.329Z,22.00
2018-11-12T04:00:19.875Z,21.90
2018-11-12T04:02:52.212Z,21.90
2018-11-12T04:05:24.389Z,21.90
2018-11-12T04:07:56.776Z,22.00
2018-11-12T04:10:28.951Z,22.00
2018-11-12T04:13:01.198Z,22.00
2018-11-12T04:15:33.332Z,21.80
2018-11-12T04:18:06.148Z,21.80
2018-11-12T04:20:39.404Z,21.70
2018-11-12T04:23:11.839Z,21.80
2018-11-12T04:25:43.975Z,21.90
2018-11-12T04:28:16.222Z,21.90
2018-11-12T04:30:48.383Z,21.90
2018-11-12T04:33:20.595Z,21.90
2018-11-12T04:35:52.704Z,21.90
2018-11-12T04:38:25.188Z,21.90
2018-11-12T04:40:57.402Z,21.80
2018-11-12T04:43:29.717Z,21.80
2018-11-12T04:46:01.917Z,21.80
2018-11-12T04:48:34.147Z,21.80
2018-11-12T04:51:06.346Z,21.70
2018-11-12T04:53:38.714Z,21.70
2018-11-12T04:56:10.996Z,21.80
2018-11-12T04:58:43.347Z,21.80
2018-11-12T05:01:15.476Z,21.70
2018-11-12T05:03:47.692Z,21.80
2018-11-12T05:06:19.862Z,21.70
2018-11-12T05:08:52.108Z,21.80
2018-11-12T05:11:24.256Z,21.70
2018-11-12T05:13:56.455Z,21.70
2018-11-12T05:16:28.668Z,21.40
2018-11-12T05:19:01.486Z,21.50
2018-11-12T05:21:33.720Z,21.40
2018-11-12T05:24:06.013Z,21.40
2018-11-12T05:26:38.179Z,21.50
2018-11-12T05:29:10.378Z,21.40
2018-11-12T05:31:42.511Z,21.30
2018-11-12T05:34:14.775Z,21.30
2018-11-12T05:36:46.939Z,21.20
2018-11-12T05:39:19.417Z,21.10
2018-11-12T05:41:51.533Z,21.10
2018-11-12T05:44:23.780Z,21.10
2018-11-12T05:46:55.990Z,21.10
2018-11-12T05:49:28.270Z,20.70
2018-11-12T05:52:00.438Z,20.80
2018-11-12T05:54:32.777Z,21.00
2018-11-12T05:57:05.106Z,21.00
2018-11-12T05:59:37.617Z,21.00
2018-11-12T06:02:09.755Z,21.00
2018-11-12T06:04:42.378Z,21.00
2018-11-12T06:07:14.585Z,21.00
2018-11-12T06:09:46.847Z,20.90
2018-11-12T06:12:18.961Z,21.00
2018-11-12T06:14:51.132Z,20.90
2018-11-12T06:17:23.281Z,21.00
2018-11-12T06:19:55.987Z,21.00
2018-11-12T06:22:28.231Z,20.90
2018-11-12T06:25:00.492Z,21.00
2018-11-12T06:27:32.655Z,20.90
2018-11-12T06:30:05.083Z,20.90
2018-11-12T06:32:37.263Z,20.90
2018-11-12T06:35:10.785Z,20.90
2018-11-12T06:37:43.420Z,20.90
2018-11-12T06:40:19.001Z,20.70
2018-11-12T06:42:51.248Z,20.60
2018-11-12T06:45:24.824Z,20.30
2018-11-12T06:47:57.646Z,20.20
2018-11-12T06:50:31.048Z,20.10
2018-11-12T06:53:03.711Z,20.10
2018-11-12T06:55:36.425Z,19.70
2018-11-12T06:58:08.629Z,19.60
2018-11-12T07:00:40.968Z,19.40
2018-11-12T07:03:13.093Z,19.40
2018-11-12T07:05:45.333Z,19.50
2018-11-12T07:08:17.490Z,19.40
2018-11-12T07:10:49.841Z,19.30
2018-11-12T07:13:22.632Z,19.40
2018-11-12T07:15:54.887Z,19.30
2018-11-12T07:18:27.054Z,19.10
2018-11-12T07:20:59.945Z,19.20
2018-11-12T07:23:32.107Z,19.40
2018-11-12T07:26:04.506Z,19.30
2018-11-12T07:28:36.689Z,19.20
2018-11-12T07:31:09.070Z,19.40
2018-11-12T07:33:41.255Z,19.40
2018-11-12T07:36:13.490Z,19.40
2018-11-12T07:38:45.781Z,19.40
2018-11-12T07:41:18.298Z,19.40
2018-11-12T07:43:50.436Z,19.50
2018-11-12T07:46:22.664Z,19.40
2018-11-12T07:48:55.002Z,19.40
2018-11-12T07:51:27.373Z,19.50
2018-11-12T07:53:59.547Z,19.40
2018-11-12T07:56:31.865Z,19.20
2018-11-12T07:59:04.077Z,19.00
2018-11-12T08:01:37.284Z,18.70
2018-11-12T08:04:09.524Z,18.90
2018-11-12T08:06:41.853Z,18.90
2018-11-12T08:09:14.447Z,18.70
2018-11-12T08:11:46.694Z,18.50
2018-11-12T08:14:18.910Z,18.40
2018-11-12T08:16:51.134Z,18.50
2018-11-12T08:19:23.291Z,18.40
2018-11-12T08:21:56.271Z,18.40
2018-11-12T08:24:28.452Z,18.10
2018-11-12T08:27:00.744Z,18.40
2018-11-12T08:29:32.916Z,18.80
2018-11-12T08:32:05.501Z,19.00
2018-11-12T08:34:37.641Z,19.10
2018-11-12T08:37:10.034Z,19.00
2018-11-12T08:39:42.382Z,18.90
2018-11-12T08:42:14.746Z,18.90
2018-11-12T08:44:46.879Z,18.90
2018-11-12T08:47:19.088Z,18.90
2018-11-12T08:49:51.322Z,19.00
2018-11-12T08:52:23.609Z,18.70
2018-11-12T08:54:55.869Z,18.50
2018-11-12T08:57:28.244Z,18.50
2018-11-12T09:00:00.376Z,18.40
2018-11-12T09:02:32.777Z,18.40
2018-11-12T09:05:04.908Z,18.50
2018-11-12T09:07:37.190Z,18.60
2018-11-12T09:10:12.477Z,18.50
2018-11-12T09:12:45.230Z,18.40
2018-11-12T09:15:17.822Z,18.20
2018-11-12T09:17:50.564Z,18.20
2018-11-12T09:20:23.947Z,17.90
2018-11-12T09:22:57.796Z,18.00
2018-11-12T09:25:30.443Z,18.20
2018-11-12T09:28:03.199Z,18.20
2018-11-12T09:30:35.357Z,18.30
2018-11-12T09:33:07.922Z,18.40
2018-11-12T09:35:40.133Z,18.60
2018-11-12T09:38:12.413Z,18.70
2018-11-12T09:40:44.639Z,18.60
2018-11-12T09:43:16.968Z,18.60
2018-11-12T09:45:49.210Z,18.60
2018-11-12T09:48:21.568Z,18.80
2018-11-12T09:50:53.678Z,19.00
2018-11-12T09:53:25.929Z,18.90
2018-11-12T09:55:58.096Z,18.90
2018-11-12T09:58:30.392Z,18.90
2018-11-12T10:01:03.157Z,19.00
2018-11-12T10:03:37.399Z,19.00
2018-11-12T10:06:10.326Z,19.10
2018-11-12T10:08:43.431Z,19.10
2018-11-12T10:11:16.960Z,18.80
2018-11-12T10:13:50.240Z,19.00
2018-11-12T10:16:22.111Z,19.00
2018-11-12T10:18:51.459Z,18.80
2018-11-12T10:21:23.646Z,18.90
2018-11-12T10:23:56.491Z,19.10
2018-11-12T10:26:28.664Z,19.10
2018-11-12T10:29:01.034Z,19.10
2018-11-12T10:31:33.206Z,19.20
2018-11-12T10:34:05.457Z,19.00
2018-11-12T10:36:37.656Z,18.70
2018-11-12T10:39:11.191Z,18.70
2018-11-12T10:41:43.367Z,18.60
2018-11-12T10:44:15.628Z,18.50
2018-11-12T10:46:47.798Z,18.70
2018-11-12T10:49:20.033Z,18.80
2018-11-12T10:51:52.163Z,18.90
2018-11-12T10:54:25.274Z,18.80
2018-11-12T10:56:57.468Z,18.80
2018-11-12T10:59:29.747Z,18.70
2018-11-12T11:02:06.358Z,18.80
2018-11-12T11:04:38.822Z,18.80
2018-11-12T11:07:10.945Z,18.90
2018-11-12T11:09:43.155Z,18.80
2018-11-12T11:12:15.351Z,18.80
2018-11-12T11:14:47.572Z,18.80
2018-11-12T11:17:19.705Z,18.70
2018-11-12T11:19:51.962Z,18.70
2018-11-12T11:22:24.147Z,18.80
2018-11-12T11:24:56.799Z,18.80
2018-11-12T11:27:28.928Z,18.70
2018-11-12T11:30:01.224Z,18.70
2018-11-12T11:32:33.450Z,18.70
2018-11-12T11:35:05.838Z,18.70
2018-11-12T11:37:38.142Z,18.60
2018-11-12T11:40:14.325Z,18.70
2018-11-12T11:42:46.641Z,18.60
2018-11-12T11:45:19.793Z,18.60
2018-11-12T11:47:52.871Z,18.60
2018-11-12T11:50:26.514Z,18.50
2018-11-12T11:52:58.700Z,18.50
2018-11-12T11:55:30.937Z,18.40
2018-11-12T11:58:03.091Z,18.30
2018-11-12T12:00:35.320Z,18.30
2018-11-12T12:03:07.586Z,18.20
2018-11-12T12:05:39.893Z,18.10
2018-11-12T12:08:12.063Z,18.10
2018-11-12T12:10:44.288Z,18.00
2018-11-12T12:13:16.738Z,18.00
2018-11-12T12:15:49.843Z,17.90
2018-11-12T12:18:22.100Z,17.90
2018-11-12T12:20:54.460Z,17.80
2018-11-12T12:23:27.541Z,17.80
2018-11-12T12:26:00.203Z,17.90
2018-11-12T12:28:33.260Z,18.00
2018-11-12T12:31:05.648Z,18.00
2018-11-12T12:33:37.803Z,18.10
2018-11-12T12:36:10.134Z,18.30
2018-11-12T12:38:42.386Z,18.80
2018-11-12T12:41:14.588Z,19.10
2018-11-12T12:43:46.716Z,19.40
2018-11-12T12:46:19.136Z,19.60
2018-11-12T12:48:51.269Z,19.70
2018-11-12T12:51:23.718Z,19.80
2018-11-12T12:53:55.895Z,20.10
2018-11-12T12:56:29.005Z,20.70
2018-11-12T12:59:01.942Z,21.40
2018-11-12T13:01:34.943Z,22.00
2018-11-12T13:04:07.511Z,22.40
2018-11-12T13:06:39.947Z,22.90
2018-11-12T13:09:12.774Z,23.50
2018-11-12T13:11:44.984Z,23.90
2018-11-12T13:14:17.910Z,23.80
2018-11-12T13:16:50.240Z,24.10
2018-11-12T13:19:22.407Z,24.70
2018-11-12T13:21:54.671Z,24.90
2018-11-12T13:24:26.870Z,25.30
2018-11-12T13:26:59.497Z,25.70
2018-11-12T13:29:31.812Z,25.80
2018-11-12T13:32:05.115Z,25.70
2018-11-12T13:34:37.934Z,25.40
2018-11-12T13:37:10.247Z,25.00
2018-11-12T13:39:42.393Z,24.70
2018-11-12T13:42:14.716Z,24.20
2018-11-12T13:44:46.915Z,23.70
2018-11-12T13:47:19.355Z,23.30
2018-11-12T13:49:51.527Z,23.30
2018-11-12T13:52:23.843Z,23.30
2018-11-12T13:54:56.013Z,23.20
2018-11-12T13:57:28.417Z,22.80
2018-11-12T14:00:00.607Z,22.50
2018-11-12T14:02:32.892Z,22.50
2018-11-12T14:05:05.102Z,22.50
2018-11-12T14:07:38.102Z,22.20
2018-11-12T14:10:12.384Z,22.20
2018-11-12T14:12:45.253Z,22.40
2018-11-12T14:15:19.139Z,22.50
2018-11-12T14:17:51.943Z,22.50
2018-11-12T14:20:24.720Z,22.50
2018-11-12T14:22:57.053Z,22.50
2018-11-12T14:25:29.436Z,22.40
2018-11-12T14:28:02.136Z,22.50
2018-11-12T14:30:34.443Z,22.50
2018-11-12T14:33:06.763Z,22.60
2018-11-12T14:35:39.146Z,22.50
2018-11-12T14:38:11.474Z,22.50
2018-11-12T14:40:43.686Z,22.90
2018-11-12T14:43:16.544Z,23.30
2018-11-12T14:45:49.818Z,23.80
2018-11-12T14:48:22.806Z,24.60
2018-11-12T14:50:55.140Z,25.30
2018-11-12T14:53:27.552Z,25.40
2018-11-12T14:55:59.777Z,26.10
2018-11-12T14:58:32.770Z,26.80
2018-11-12T15:01:05.044Z,27.30
2018-11-12T15:03:37.555Z,27.30
2018-11-12T15:06:09.871Z,28.10
2018-11-12T15:08:42.198Z,28.30
2018-11-12T15:11:14.945Z,28.90
2018-11-12T15:13:47.403Z,29.00
2018-11-12T15:16:19.625Z,29.40
2018-11-12T15:18:51.991Z,29.50
2018-11-12T15:21:24.403Z,29.90
2018-11-12T15:23:56.939Z,30.30
2018-11-12T15:26:29.703Z,30.70
2018-11-12T15:29:03.420Z,30.80
2018-11-12T15:31:37.033Z,30.70
2018-11-12T15:34:10.042Z,31.00
2018-11-12T15:36:42.238Z,30.90
2018-11-12T15:39:14.594Z,30.10
2018-11-12T15:41:47.046Z,29.90
2018-11-12T15:44:19.683Z,30.10
2018-11-12T15:46:51.950Z,30.70
2018-11-12T15:49:24.492Z,30.80
2018-11-12T15:51:56.808Z,31.00
2018-11-12T15:54:29.239Z,30.40
2018-11-12T15:57:01.587Z,30.70
2018-11-12T15:59:33.879Z,31.30
2018-11-12T16:02:06.898Z,31.80
2018-11-12T16:04:39.290Z,32.40
2018-11-12T16:07:11.604Z,32.40
2018-11-12T16:09:43.925Z,32.70
2018-11-12T16:12:16.253Z,30.80
2018-11-12T16:14:49.250Z,31.20
2018-11-12T16:17:22.328Z,31.30
2018-11-12T16:19:54.647Z,31.00
2018-11-12T16:22:27.389Z,31.50
2018-11-12T16:24:59.860Z,31.30
2018-11-12T16:27:32.353Z,32.30
2018-11-12T16:30:05.380Z,32.70
2018-11-12T16:32:38.373Z,33.10
2018-11-12T16:35:13.622Z,33.10
2018-11-12T16:37:46.493Z,32.70
2018-11-12T16:40:19.928Z,32.00
2018-11-12T16:42:52.505Z,32.70
2018-11-12T16:45:24.856Z,33.40
2018-11-12T16:47:56.979Z,33.90
2018-11-12T16:50:30.399Z,34.10
2018-11-12T16:53:03.789Z,34.20
2018-11-12T16:55:37.939Z,34.60
2018-11-12T16:58:10.195Z,34.40
2018-11-12T17:00:42.703Z,33.70
2018-11-12T17:03:14.926Z,34.20
2018-11-12T17:05:47.382Z,33.80
2018-11-12T17:08:19.655Z,33.60
2018-11-12T17:10:52.136Z,32.90
2018-11-12T17:13:24.390Z,33.90
2018-11-12T17:15:57.659Z,34.40
2018-11-12T17:18:30.278Z,34.80
2018-11-12T17:21:04.020Z,34.70
2018-11-12T17:23:37.520Z,34.10
2018-11-12T17:26:10.459Z,34.70
2018-11-12T17:28:42.677Z,34.90
2018-11-12T17:31:15.901Z,34.50
2018-11-12T17:33:48.189Z,34.60
2018-11-12T17:36:21.183Z,35.00
2018-11-12T17:38:54.654Z,35.40
2018-11-12T17:41:27.329Z,35.80
2018-11-12T17:43:59.576Z,35.70
2018-11-12T17:46:32.604Z,34.90
2018-11-12T17:49:05.352Z,35.20
2018-11-12T17:51:37.855Z,35.20
2018-11-12T17:54:11.066Z,35.80
2018-11-12T17:56:43.539Z,36.00
2018-11-12T17:59:17.231Z,35.40
2018-11-12T18:01:51.545Z,35.30
2018-11-12T18:04:23.796Z,35.30
2018-11-12T18:07:02.244Z,35.70
2018-11-12T18:09:35.003Z,36.10
2018-11-12T18:12:08.075Z,36.40
2018-11-12T18:14:40.343Z,36.00
2018-11-12T18:17:12.928Z,35.60
2018-11-12T18:19:45.151Z,35.00
2018-11-12T18:22:17.480Z,34.70
2018-11-12T18:24:49.789Z,34.20
2018-11-12T18:27:27.071Z,34.70
2018-11-12T18:29:59.526Z,34.90
2018-11-12T18:32:33.232Z,35.10
2018-11-12T18:35:05.531Z,35.30
2018-11-12T18:37:38.476Z,34.40
2018-11-12T18:40:14.289Z,33.40
2018-11-12T18:42:47.073Z,33.00
2018-11-12T18:45:20.767Z,33.20
2018-11-12T18:47:58.581Z,33.80
2018-11-12T18:50:32.469Z,34.40
2018-11-12T18:53:04.911Z,35.00
2018-11-12T18:55:42.757Z,35.10
2018-11-12T18:58:15.788Z,34.30
2018-11-12T19:00:47.960Z,34.90
2018-11-12T19:03:20.383Z,35.20
2018-11-12T19:05:52.654Z,35.50
2018-11-12T19:08:25.000Z,35.60
2018-11-12T19:10:57.390Z,35.90
2018-11-12T19:13:29.787Z,35.70
2018-11-12T19:16:02.364Z,35.10
2018-11-12T19:18:34.853Z,34.00
2018-11-12T19:21:07.090Z,33.00
2018-11-12T19:23:39.790Z,33.70
2018-11-12T19:26:16.654Z,33.40
2018-11-12T19:28:48.931Z,33.00
2018-11-12T19:31:21.481Z,32.30
2018-11-12T19:33:54.237Z,32.60
2018-11-12T19:36:26.481Z,32.90
2018-11-12T19:38:58.877Z,33.60
2018-11-12T19:41:31.128Z,33.70
2018-11-12T19:44:04.648Z,34.50
2018-11-12T19:46:36.812Z,35.20
2018-11-12T19:49:11.036Z,35.40
2018-11-12T19:51:43.930Z,34.70
2018-11-12T19:54:16.396Z,34.80
2018-11-12T19:56:48.603Z,35.20
2018-11-12T19:59:20.807Z,35.30
2018-11-12T20:01:53.060Z,34.20
2018-11-12T20:04:25.309Z,32.90
2018-11-12T20:06:57.488Z,32.50
2018-11-12T20:09:29.802Z,32.20
2018-11-12T20:12:03.327Z,32.00
2018-11-12T20:14:36.689Z,31.90
2018-11-12T20:17:09.485Z,31.70
2018-11-12T20:19:41.882Z,32.10
2018-11-12T20:22:14.239Z,32.60
2018-11-12T20:24:46.580Z,32.30
2018-11-12T20:27:19.262Z,31.40
2018-11-12T20:29:51.545Z,32.30
2018-11-12T20:32:23.778Z,32.90
2018-11-12T20:34:56.529Z,32.70
2018-11-12T20:37:28.804Z,32.00
2018-11-12T20:40:01.113Z,32.30
2018-11-12T20:42:34.388Z,33.10
2018-11-12T20:45:06.858Z,33.40
2018-11-12T20:47:39.272Z,33.40
2018-11-12T20:50:12.891Z,33.70
2018-11-12T20:52:45.646Z,34.00
2018-11-12T20:55:20.102Z,34.10
2018-11-12T20:57:52.405Z,33.90
2018-11-12T21:00:28.954Z,33.50
2018-11-12T21:03:01.136Z,33.40
2018-11-12T21:05:33.556Z,31.80
2018-11-12T21:08:06.169Z,31.30
2018-11-12T21:10:38.568Z,31.70
2018-11-12T21:13:11.996Z,31.90
2018-11-12T21:15:44.366Z,32.10
2018-11-12T21:18:16.648Z,31.70
2018-11-12T21:20:48.967Z,32.10
2018-11-12T21:23:21.252Z,32.00
2018-11-12T21:25:53.809Z,32.20
2018-11-12T21:28:25.953Z,32.20
2018-11-12T21:30:58.176Z,32.20
2018-11-12T21:33:30.415Z,32.00
2018-11-12T21:36:04.010Z,31.90
2018-11-12T21:38:36.217Z,31.80
2018-11-12T21:41:10.505Z,31.10
2018-11-12T21:43:42.748Z,31.10
2018-11-12T21:46:16.174Z,30.90
2018-11-12T21:48:48.362Z,30.40
2018-11-12T21:51:20.624Z,30.60
2018-11-12T21:53:54.951Z,30.70
2018-11-12T21:56:27.637Z,30.70
2018-11-12T21:58:59.947Z,30.40
2018-11-12T22:01:32.594Z,29.90
2018-11-12T22:04:04.717Z,29.90
2018-11-12T22:06:36.954Z,30.00
2018-11-12T22:09:12.917Z,29.70
2018-11-12T22:11:45.254Z,29.10
2018-11-12T22:14:17.435Z,29.00
2018-11-12T22:16:50.092Z,28.60
2018-11-12T22:19:22.750Z,28.80
2018-11-12T22:21:55.087Z,28.90
2018-11-12T22:24:27.331Z,28.70
2018-11-12T22:26:59.689Z,28.40
2018-11-12T22:29:31.873Z,28.20
2018-11-12T22:32:05.034Z,28.30
2018-11-12T22:34:37.182Z,28.30
2018-11-12T22:37:10.059Z,28.20
2018-11-12T22:39:42.209Z,27.90
2018-11-12T22:42:14.472Z,27.60
2018-11-12T22:44:46.732Z,27.00
2018-11-12T22:47:21.104Z,27.20
2018-11-12T22:49:53.357Z,26.80
2018-11-12T22:52:25.745Z,26.60
2018-11-12T22:54:57.996Z,26.80
2018-11-12T22:57:30.733Z,26.90
2018-11-12T23:00:03.022Z,26.80
2018-11-12T23:02:35.255Z,26.60
2018-11-12T23:05:08.073Z,26.70
2018-11-12T23:07:40.307Z,26.30
2018-11-12T23:10:12.495Z,26.40
2018-11-12T23:12:44.909Z,26.30
2018-11-12T23:15:17.535Z,26.40
2018-11-12T23:17:49.940Z,26.20
2018-11-12T23:20:24.805Z,26.20
2018-11-12T23:22:57.079Z,26.10
2018-11-12T23:25:29.290Z,25.90
2018-11-12T23:28:01.629Z,26.10
2018-11-12T23:30:33.876Z,26.30
2018-11-12T23:33:07.167Z,26.30
2018-11-12T23:35:40.608Z,26.20
2018-11-12T23:38:13.256Z,26.30
2018-11-12T23:40:45.513Z,26.20
2018-11-12T23:43:17.892Z,26.10
2018-11-12T23:45:50.206Z,26.10
2018-11-12T23:48:22.609Z,25.90
2018-11-12T23:50:54.863Z,26.00
2018-11-12T23:53:29.036Z,25.80
2018-11-12T23:56:01.346Z,25.90
2018-11-12T23:58:35.370Z,25.90
